sensor_id;sensor_type;location;lat;lon;timestamp;P1;durP1;ratioP1;P2;durP2;ratioP2
6679;SDS011;3376;42.664;23.346;2023-05-13T00:00:20;2.50;;;1.93;;
6679;SDS011;3376;42.664;23.346;2023-05-13T00:02:47;2.00;;;1.90;;
6679;SDS011;3376;42.664;23.346;2023-05-13T00:05:13;1.97;;;1.87;;
6679;SDS011;3376;42.664;23.346;2023-05-13T00:07:41;4.20;;;2.07;;
6679;SDS011;3376;42.664;23.346;2023-05-13T00:10:08;1.47;;;1.37;;
6679;SDS011;3376;42.664;23.346;2023-05-13T00:12:35;1.47;;;1.47;;
6679;SDS011;3376;42.664;23.346;2023-05-13T00:15:02;1.67;;;1.63;;
6679;SDS011;3376;42.664;23.346;2023-05-13T00:17:30;2.97;;;1.60;;
6679;SDS011;3376;42.664;23.346;2023-05-13T00:19:56;1.87;;;1.77;;
6679;SDS011;3376;42.664;23.346;2023-05-13T00:22:23;1.60;;;1.47;;
6679;SDS011;3376;42.664;23.346;2023-05-13T00:24:51;1.77;;;1.67;;
6679;SDS011;3376;42.664;23.346;2023-05-13T00:27:18;1.83;;;1.73;;
6679;SDS011;3376;42.664;23.346;2023-05-13T00:29:44;1.50;;;1.40;;
6679;SDS011;3376;42.664;23.346;2023-05-13T00:32:11;1.57;;;1.37;;
6679;SDS011;3376;42.664;23.346;2023-05-13T00:34:38;1.70;;;1.60;;
6679;SDS011;3376;42.664;23.346;2023-05-13T00:37:05;2.17;;;1.77;;
6679;SDS011;3376;42.664;23.346;2023-05-13T00:39:34;1.97;;;1.57;;
6679;SDS011;3376;42.664;23.346;2023-05-13T00:42:02;1.70;;;1.60;;
6679;SDS011;3376;42.664;23.346;2023-05-13T00:44:29;1.80;;;1.77;;
6679;SDS011;3376;42.664;23.346;2023-05-13T00:46:56;2.20;;;1.60;;
6679;SDS011;3376;42.664;23.346;2023-05-13T00:49:24;1.80;;;1.70;;
6679;SDS011;3376;42.664;23.346;2023-05-13T00:51:51;1.67;;;1.57;;
6679;SDS011;3376;42.664;23.346;2023-05-13T00:54:19;3.40;;;3.10;;
6679;SDS011;3376;42.664;23.346;2023-05-13T00:56:46;3.60;;;3.40;;
6679;SDS011;3376;42.664;23.346;2023-05-13T00:59:14;3.40;;;3.27;;
6679;SDS011;3376;42.664;23.346;2023-05-13T01:01:42;3.97;;;3.63;;
6679;SDS011;3376;42.664;23.346;2023-05-13T01:04:16;3.83;;;3.63;;
6679;SDS011;3376;42.664;23.346;2023-05-13T01:06:58;4.23;;;3.93;;
6679;SDS011;3376;42.664;23.346;2023-05-13T01:09:34;4.17;;;3.77;;
6679;SDS011;3376;42.664;23.346;2023-05-13T01:12:06;4.73;;;4.00;;
6679;SDS011;3376;42.664;23.346;2023-05-13T01:14:38;10.17;;;4.20;;
6679;SDS011;3376;42.664;23.346;2023-05-13T01:17:13;2.77;;;2.57;;
6679;SDS011;3376;42.664;23.346;2023-05-13T01:19:43;2.73;;;2.63;;
6679;SDS011;3376;42.664;23.346;2023-05-13T01:22:14;2.37;;;2.27;;
6679;SDS011;3376;42.664;23.346;2023-05-13T01:24:41;2.40;;;2.20;;
6679;SDS011;3376;42.664;23.346;2023-05-13T01:27:09;1.80;;;1.70;;
6679;SDS011;3376;42.664;23.346;2023-05-13T01:29:36;2.10;;;2.00;;
6679;SDS011;3376;42.664;23.346;2023-05-13T01:32:05;1.93;;;1.80;;
6679;SDS011;3376;42.664;23.346;2023-05-13T01:34:34;1.73;;;1.47;;
6679;SDS011;3376;42.664;23.346;2023-05-13T01:37:02;6.33;;;2.13;;
6679;SDS011;3376;42.664;23.346;2023-05-13T01:39:31;1.53;;;1.43;;
6679;SDS011;3376;42.664;23.346;2023-05-13T01:42:01;1.40;;;1.40;;
6679;SDS011;3376;42.664;23.346;2023-05-13T01:44:28;1.60;;;1.50;;
6679;SDS011;3376;42.664;23.346;2023-05-13T01:46:55;2.83;;;1.60;;
6679;SDS011;3376;42.664;23.346;2023-05-13T01:49:22;1.50;;;1.50;;
6679;SDS011;3376;42.664;23.346;2023-05-13T01:51:50;4.13;;;1.60;;
6679;SDS011;3376;42.664;23.346;2023-05-13T01:54:16;1.60;;;1.60;;
6679;SDS011;3376;42.664;23.346;2023-05-13T01:56:44;2.73;;;1.83;;
6679;SDS011;3376;42.664;23.346;2023-05-13T01:59:11;2.17;;;2.00;;
6679;SDS011;3376;42.664;23.346;2023-05-13T02:01:38;1.97;;;1.93;;
6679;SDS011;3376;42.664;23.346;2023-05-13T02:04:05;2.67;;;1.40;;
6679;SDS011;3376;42.664;23.346;2023-05-13T02:06:32;2.17;;;2.07;;
6679;SDS011;3376;42.664;23.346;2023-05-13T02:08:59;2.53;;;1.63;;
6679;SDS011;3376;42.664;23.346;2023-05-13T02:11:25;2.50;;;1.77;;
6679;SDS011;3376;42.664;23.346;2023-05-13T02:13:54;2.50;;;2.40;;
6679;SDS011;3376;42.664;23.346;2023-05-13T02:16:20;3.37;;;3.23;;
6679;SDS011;3376;42.664;23.346;2023-05-13T02:18:47;4.00;;;3.70;;
6679;SDS011;3376;42.664;23.346;2023-05-13T02:21:14;8.73;;;4.03;;
6679;SDS011;3376;42.664;23.346;2023-05-13T02:23:41;4.23;;;4.00;;
6679;SDS011;3376;42.664;23.346;2023-05-13T02:26:08;5.60;;;4.57;;
6679;SDS011;3376;42.664;23.346;2023-05-13T02:28:35;4.63;;;4.33;;
6679;SDS011;3376;42.664;23.346;2023-05-13T02:31:03;4.93;;;4.57;;
6679;SDS011;3376;42.664;23.346;2023-05-13T02:33:30;4.37;;;3.97;;
6679;SDS011;3376;42.664;23.346;2023-05-13T02:35:57;4.90;;;4.70;;
6679;SDS011;3376;42.664;23.346;2023-05-13T02:38:24;3.60;;;3.50;;
6679;SDS011;3376;42.664;23.346;2023-05-13T02:40:50;4.33;;;4.13;;
6679;SDS011;3376;42.664;23.346;2023-05-13T02:43:17;2.90;;;2.80;;
6679;SDS011;3376;42.664;23.346;2023-05-13T02:45:44;2.80;;;2.70;;
6679;SDS011;3376;42.664;23.346;2023-05-13T02:48:13;2.60;;;2.50;;
6679;SDS011;3376;42.664;23.346;2023-05-13T02:50:40;4.77;;;3.27;;
6679;SDS011;3376;42.664;23.346;2023-05-13T02:53:07;2.40;;;2.30;;
6679;SDS011;3376;42.664;23.346;2023-05-13T02:55:33;2.70;;;2.60;;
6679;SDS011;3376;42.664;23.346;2023-05-13T02:58:00;2.80;;;2.57;;
6679;SDS011;3376;42.664;23.346;2023-05-13T03:00:27;3.40;;;2.60;;
6679;SDS011;3376;42.664;23.346;2023-05-13T03:02:54;2.50;;;2.40;;
6679;SDS011;3376;42.664;23.346;2023-05-13T03:05:23;7.03;;;3.00;;
6679;SDS011;3376;42.664;23.346;2023-05-13T03:07:49;2.90;;;2.70;;
6679;SDS011;3376;42.664;23.346;2023-05-13T03:10:16;3.70;;;3.33;;
6679;SDS011;3376;42.664;23.346;2023-05-13T03:12:43;3.50;;;3.40;;
6679;SDS011;3376;42.664;23.346;2023-05-13T03:15:10;3.50;;;3.40;;
6679;SDS011;3376;42.664;23.346;2023-05-13T03:17:37;3.17;;;2.97;;
6679;SDS011;3376;42.664;23.346;2023-05-13T03:20:04;3.10;;;3.00;;
6679;SDS011;3376;42.664;23.346;2023-05-13T03:22:33;3.23;;;3.03;;
6679;SDS011;3376;42.664;23.346;2023-05-13T03:25:02;3.30;;;3.20;;
6679;SDS011;3376;42.664;23.346;2023-05-13T03:27:30;3.60;;;3.40;;
6679;SDS011;3376;42.664;23.346;2023-05-13T03:29:56;2.80;;;2.70;;
6679;SDS011;3376;42.664;23.346;2023-05-13T03:32:23;8.00;;;3.27;;
6679;SDS011;3376;42.664;23.346;2023-05-13T03:34:54;3.93;;;3.63;;
6679;SDS011;3376;42.664;23.346;2023-05-13T03:37:21;2.83;;;2.73;;
6679;SDS011;3376;42.664;23.346;2023-05-13T03:39:49;3.40;;;3.30;;
6679;SDS011;3376;42.664;23.346;2023-05-13T03:42:16;4.10;;;3.70;;
6679;SDS011;3376;42.664;23.346;2023-05-13T03:44:43;3.70;;;3.50;;
6679;SDS011;3376;42.664;23.346;2023-05-13T03:47:09;3.50;;;3.23;;
6679;SDS011;3376;42.664;23.346;2023-05-13T03:49:36;3.50;;;3.30;;
6679;SDS011;3376;42.664;23.346;2023-05-13T03:52:03;3.97;;;3.53;;
6679;SDS011;3376;42.664;23.346;2023-05-13T03:54:32;3.57;;;3.37;;
6679;SDS011;3376;42.664;23.346;2023-05-13T03:57:00;3.50;;;3.37;;
6679;SDS011;3376;42.664;23.346;2023-05-13T03:59:27;3.70;;;3.50;;
6679;SDS011;3376;42.664;23.346;2023-05-13T04:01:53;3.63;;;3.43;;
6679;SDS011;3376;42.664;23.346;2023-05-13T04:04:20;4.03;;;3.77;;
6679;SDS011;3376;42.664;23.346;2023-05-13T04:06:47;4.73;;;4.00;;
6679;SDS011;3376;42.664;23.346;2023-05-13T04:09:13;3.97;;;3.77;;
6679;SDS011;3376;42.664;23.346;2023-05-13T04:11:40;4.53;;;4.23;;
6679;SDS011;3376;42.664;23.346;2023-05-13T04:14:08;4.23;;;3.93;;
6679;SDS011;3376;42.664;23.346;2023-05-13T04:16:35;4.50;;;4.20;;
6679;SDS011;3376;42.664;23.346;2023-05-13T04:19:02;3.87;;;3.67;;
6679;SDS011;3376;42.664;23.346;2023-05-13T04:21:28;3.87;;;3.60;;
6679;SDS011;3376;42.664;23.346;2023-05-13T04:23:55;4.33;;;4.00;;
6679;SDS011;3376;42.664;23.346;2023-05-13T04:26:22;4.20;;;3.97;;
6679;SDS011;3376;42.664;23.346;2023-05-13T04:28:49;5.03;;;4.57;;
6679;SDS011;3376;42.664;23.346;2023-05-13T04:31:17;5.17;;;4.87;;
6679;SDS011;3376;42.664;23.346;2023-05-13T04:33:45;5.30;;;5.00;;
6679;SDS011;3376;42.664;23.346;2023-05-13T04:36:12;5.30;;;4.90;;
6679;SDS011;3376;42.664;23.346;2023-05-13T04:38:38;5.10;;;4.83;;
6679;SDS011;3376;42.664;23.346;2023-05-13T04:41:05;7.07;;;4.67;;
6679;SDS011;3376;42.664;23.346;2023-05-13T04:43:32;5.83;;;5.50;;
6679;SDS011;3376;42.664;23.346;2023-05-13T04:45:59;5.27;;;4.97;;
6679;SDS011;3376;42.664;23.346;2023-05-13T04:48:27;4.97;;;4.77;;
6679;SDS011;3376;42.664;23.346;2023-05-13T04:50:53;5.60;;;5.30;;
6679;SDS011;3376;42.664;23.346;2023-05-13T04:53:20;5.13;;;4.93;;
6679;SDS011;3376;42.664;23.346;2023-05-13T04:55:47;5.13;;;4.83;;
6679;SDS011;3376;42.664;23.346;2023-05-13T04:58:14;5.03;;;4.83;;
6679;SDS011;3376;42.664;23.346;2023-05-13T05:00:41;6.13;;;5.60;;
6679;SDS011;3376;42.664;23.346;2023-05-13T05:03:08;4.40;;;4.20;;
6679;SDS011;3376;42.664;23.346;2023-05-13T05:05:36;5.87;;;4.27;;
6679;SDS011;3376;42.664;23.346;2023-05-13T05:08:03;4.70;;;4.40;;
6679;SDS011;3376;42.664;23.346;2023-05-13T05:10:30;4.10;;;3.80;;
6679;SDS011;3376;42.664;23.346;2023-05-13T05:12:56;3.60;;;3.50;;
6679;SDS011;3376;42.664;23.346;2023-05-13T05:15:23;4.80;;;4.50;;
6679;SDS011;3376;42.664;23.346;2023-05-13T05:17:50;3.53;;;3.33;;
6679;SDS011;3376;42.664;23.346;2023-05-13T05:20:17;3.60;;;3.30;;
6679;SDS011;3376;42.664;23.346;2023-05-13T05:22:45;4.17;;;3.87;;
6679;SDS011;3376;42.664;23.346;2023-05-13T05:25:14;3.53;;;3.33;;
6679;SDS011;3376;42.664;23.346;2023-05-13T05:27:41;4.23;;;3.90;;
6679;SDS011;3376;42.664;23.346;2023-05-13T05:30:08;4.97;;;4.67;;
6679;SDS011;3376;42.664;23.346;2023-05-13T05:32:36;4.60;;;4.20;;
6679;SDS011;3376;42.664;23.346;2023-05-13T05:35:03;4.70;;;4.33;;
6679;SDS011;3376;42.664;23.346;2023-05-13T05:37:30;4.30;;;3.90;;
6679;SDS011;3376;42.664;23.346;2023-05-13T05:39:58;4.03;;;3.60;;
6679;SDS011;3376;42.664;23.346;2023-05-13T05:42:25;4.60;;;4.10;;
6679;SDS011;3376;42.664;23.346;2023-05-13T05:44:52;4.23;;;4.03;;
6679;SDS011;3376;42.664;23.346;2023-05-13T05:47:19;4.10;;;3.80;;
6679;SDS011;3376;42.664;23.346;2023-05-13T05:49:45;4.23;;;3.97;;
6679;SDS011;3376;42.664;23.346;2023-05-13T05:52:12;4.13;;;3.63;;
6679;SDS011;3376;42.664;23.346;2023-05-13T05:54:39;4.57;;;3.77;;
6679;SDS011;3376;42.664;23.346;2023-05-13T05:57:07;5.30;;;4.87;;
6679;SDS011;3376;42.664;23.346;2023-05-13T05:59:34;4.23;;;4.00;;
6679;SDS011;3376;42.664;23.346;2023-05-13T06:02:00;4.63;;;4.07;;
6679;SDS011;3376;42.664;23.346;2023-05-13T06:04:28;4.57;;;4.37;;
6679;SDS011;3376;42.664;23.346;2023-05-13T06:06:55;4.60;;;4.20;;
6679;SDS011;3376;42.664;23.346;2023-05-13T06:09:21;4.33;;;4.10;;
6679;SDS011;3376;42.664;23.346;2023-05-13T06:11:48;4.30;;;4.00;;
6679;SDS011;3376;42.664;23.346;2023-05-13T06:14:16;4.47;;;4.10;;
6679;SDS011;3376;42.664;23.346;2023-05-13T06:16:43;4.13;;;3.93;;
6679;SDS011;3376;42.664;23.346;2023-05-13T06:19:10;4.60;;;4.33;;
6679;SDS011;3376;42.664;23.346;2023-05-13T06:21:37;5.00;;;4.53;;
6679;SDS011;3376;42.664;23.346;2023-05-13T06:24:04;5.27;;;4.17;;
6679;SDS011;3376;42.664;23.346;2023-05-13T06:26:31;9.60;;;4.50;;
6679;SDS011;3376;42.664;23.346;2023-05-13T06:28:58;7.50;;;4.30;;
6679;SDS011;3376;42.664;23.346;2023-05-13T06:31:26;5.03;;;4.57;;
6679;SDS011;3376;42.664;23.346;2023-05-13T06:33:53;4.40;;;3.97;;
6679;SDS011;3376;42.664;23.346;2023-05-13T06:36:20;3.73;;;3.53;;
6679;SDS011;3376;42.664;23.346;2023-05-13T06:38:46;4.77;;;4.33;;
6679;SDS011;3376;42.664;23.346;2023-05-13T06:41:13;4.20;;;4.00;;
6679;SDS011;3376;42.664;23.346;2023-05-13T06:43:40;8.97;;;8.10;;
6679;SDS011;3376;42.664;23.346;2023-05-13T06:46:09;4.67;;;4.37;;
6679;SDS011;3376;42.664;23.346;2023-05-13T06:48:37;5.33;;;4.83;;
6679;SDS011;3376;42.664;23.346;2023-05-13T06:51:04;5.97;;;5.53;;
6679;SDS011;3376;42.664;23.346;2023-05-13T06:53:31;5.07;;;4.23;;
6679;SDS011;3376;42.664;23.346;2023-05-13T06:55:58;6.40;;;4.57;;
6679;SDS011;3376;42.664;23.346;2023-05-13T06:58:24;4.67;;;4.23;;
6679;SDS011;3376;42.664;23.346;2023-05-13T07:00:51;3.40;;;3.20;;
6679;SDS011;3376;42.664;23.346;2023-05-13T07:03:18;4.37;;;3.97;;
6679;SDS011;3376;42.664;23.346;2023-05-13T07:05:46;3.67;;;3.30;;
6679;SDS011;3376;42.664;23.346;2023-05-13T07:08:13;5.77;;;3.87;;
6679;SDS011;3376;42.664;23.346;2023-05-13T07:10:42;4.23;;;3.47;;
6679;SDS011;3376;42.664;23.346;2023-05-13T07:13:09;4.13;;;3.60;;
6679;SDS011;3376;42.664;23.346;2023-05-13T07:15:36;4.70;;;4.17;;
6679;SDS011;3376;42.664;23.346;2023-05-13T07:18:03;3.80;;;3.60;;
6679;SDS011;3376;42.664;23.346;2023-05-13T07:20:29;5.40;;;4.90;;
6679;SDS011;3376;42.664;23.346;2023-05-13T07:22:58;3.57;;;3.30;;
6679;SDS011;3376;42.664;23.346;2023-05-13T07:25:24;7.53;;;2.73;;
6679;SDS011;3376;42.664;23.346;2023-05-13T07:27:51;2.83;;;2.63;;
6679;SDS011;3376;42.664;23.346;2023-05-13T07:30:18;2.80;;;2.60;;
6679;SDS011;3376;42.664;23.346;2023-05-13T07:32:45;3.43;;;2.87;;
6679;SDS011;3376;42.664;23.346;2023-05-13T07:35:12;3.33;;;2.93;;
6679;SDS011;3376;42.664;23.346;2023-05-13T07:37:39;2.77;;;2.67;;
6679;SDS011;3376;42.664;23.346;2023-05-13T07:40:07;3.43;;;3.23;;
6679;SDS011;3376;42.664;23.346;2023-05-13T07:42:35;3.17;;;2.97;;
6679;SDS011;3376;42.664;23.346;2023-05-13T07:45:02;2.80;;;2.70;;
6679;SDS011;3376;42.664;23.346;2023-05-13T07:47:29;3.50;;;3.20;;
6679;SDS011;3376;42.664;23.346;2023-05-13T07:49:57;3.20;;;3.00;;
6679;SDS011;3376;42.664;23.346;2023-05-13T07:52:24;6.20;;;3.77;;
6679;SDS011;3376;42.664;23.346;2023-05-13T07:54:51;3.83;;;3.63;;
6679;SDS011;3376;42.664;23.346;2023-05-13T07:57:20;5.70;;;4.27;;
6679;SDS011;3376;42.664;23.346;2023-05-13T07:59:47;3.70;;;3.40;;
6679;SDS011;3376;42.664;23.346;2023-05-13T08:02:13;3.20;;;3.10;;
6679;SDS011;3376;42.664;23.346;2023-05-13T08:04:40;6.13;;;3.47;;
6679;SDS011;3376;42.664;23.346;2023-05-13T08:07:07;3.90;;;3.60;;
6679;SDS011;3376;42.664;23.346;2023-05-13T08:09:35;4.00;;;3.60;;
6679;SDS011;3376;42.664;23.346;2023-05-13T08:12:01;7.17;;;4.23;;
6679;SDS011;3376;42.664;23.346;2023-05-13T08:14:30;3.73;;;3.60;;
6679;SDS011;3376;42.664;23.346;2023-05-13T08:16:56;3.70;;;3.50;;
6679;SDS011;3376;42.664;23.346;2023-05-13T08:19:23;4.63;;;4.33;;
6679;SDS011;3376;42.664;23.346;2023-05-13T08:21:50;5.17;;;4.87;;
6679;SDS011;3376;42.664;23.346;2023-05-13T08:24:17;4.77;;;4.47;;
6679;SDS011;3376;42.664;23.346;2023-05-13T08:27:04;4.30;;;4.00;;
6679;SDS011;3376;42.664;23.346;2023-05-13T08:29:32;4.83;;;4.53;;
6679;SDS011;3376;42.664;23.346;2023-05-13T08:31:59;5.17;;;4.87;;
6679;SDS011;3376;42.664;23.346;2023-05-13T08:34:26;5.87;;;4.67;;
6679;SDS011;3376;42.664;23.346;2023-05-13T08:36:52;5.63;;;5.17;;
6679;SDS011;3376;42.664;23.346;2023-05-13T08:39:19;4.40;;;4.10;;
6679;SDS011;3376;42.664;23.346;2023-05-13T08:41:46;4.47;;;4.13;;
6679;SDS011;3376;42.664;23.346;2023-05-13T08:44:14;5.70;;;4.63;;
6679;SDS011;3376;42.664;23.346;2023-05-13T08:46:52;4.77;;;4.57;;
6679;SDS011;3376;42.664;23.346;2023-05-13T08:49:27;6.10;;;4.37;;
6679;SDS011;3376;42.664;23.346;2023-05-13T08:51:54;4.87;;;4.53;;
6679;SDS011;3376;42.664;23.346;2023-05-13T08:54:21;4.47;;;4.23;;
6679;SDS011;3376;42.664;23.346;2023-05-13T08:56:49;5.03;;;4.63;;
6679;SDS011;3376;42.664;23.346;2023-05-13T08:59:16;8.60;;;7.87;;
6679;SDS011;3376;42.664;23.346;2023-05-13T09:01:45;7.50;;;4.70;;
6679;SDS011;3376;42.664;23.346;2023-05-13T09:04:14;5.13;;;4.83;;
6679;SDS011;3376;42.664;23.346;2023-05-13T09:06:42;7.30;;;6.70;;
6679;SDS011;3376;42.664;23.346;2023-05-13T09:09:09;5.80;;;5.40;;
6679;SDS011;3376;42.664;23.346;2023-05-13T09:11:36;5.03;;;4.47;;
6679;SDS011;3376;42.664;23.346;2023-05-13T09:14:04;6.90;;;6.43;;
6679;SDS011;3376;42.664;23.346;2023-05-13T09:16:32;4.47;;;4.27;;
6679;SDS011;3376;42.664;23.346;2023-05-13T09:19:02;5.30;;;4.80;;
6679;SDS011;3376;42.664;23.346;2023-05-13T09:21:31;5.00;;;4.70;;
6679;SDS011;3376;42.664;23.346;2023-05-13T09:24:06;5.27;;;4.90;;
6679;SDS011;3376;42.664;23.346;2023-05-13T09:26:34;9.67;;;6.93;;
6679;SDS011;3376;42.664;23.346;2023-05-13T09:31:47;7.30;;;6.90;;
6679;SDS011;3376;42.664;23.346;2023-05-13T09:34:23;6.70;;;6.07;;
6679;SDS011;3376;42.664;23.346;2023-05-13T09:36:55;7.83;;;7.13;;
6679;SDS011;3376;42.664;23.346;2023-05-13T09:39:25;5.37;;;5.07;;
6679;SDS011;3376;42.664;23.346;2023-05-13T09:41:52;5.30;;;5.00;;
6679;SDS011;3376;42.664;23.346;2023-05-13T09:44:20;5.27;;;4.97;;
6679;SDS011;3376;42.664;23.346;2023-05-13T09:46:47;4.20;;;4.00;;
6679;SDS011;3376;42.664;23.346;2023-05-13T09:49:16;7.10;;;6.33;;
6679;SDS011;3376;42.664;23.346;2023-05-13T09:51:44;6.00;;;5.60;;
6679;SDS011;3376;42.664;23.346;2023-05-13T09:54:11;6.63;;;6.13;;
6679;SDS011;3376;42.664;23.346;2023-05-13T09:56:38;5.67;;;5.00;;
6679;SDS011;3376;42.664;23.346;2023-05-13T09:59:05;5.63;;;5.40;;
6679;SDS011;3376;42.664;23.346;2023-05-13T10:01:32;5.87;;;5.33;;
6679;SDS011;3376;42.664;23.346;2023-05-13T10:04:00;5.73;;;5.37;;
6679;SDS011;3376;42.664;23.346;2023-05-13T10:06:30;5.50;;;5.20;;
6679;SDS011;3376;42.664;23.346;2023-05-13T10:09:00;5.60;;;5.30;;
6679;SDS011;3376;42.664;23.346;2023-05-13T10:11:28;5.27;;;4.80;;
6679;SDS011;3376;42.664;23.346;2023-05-13T10:13:59;6.13;;;5.70;;
6679;SDS011;3376;42.664;23.346;2023-05-13T10:16:27;5.87;;;5.67;;
6679;SDS011;3376;42.664;23.346;2023-05-13T10:18:55;10.47;;;9.77;;
6679;SDS011;3376;42.664;23.346;2023-05-13T10:21:22;5.10;;;4.90;;
6679;SDS011;3376;42.664;23.346;2023-05-13T10:23:49;6.87;;;6.27;;
6679;SDS011;3376;42.664;23.346;2023-05-13T10:26:19;8.07;;;7.43;;
6679;SDS011;3376;42.664;23.346;2023-05-13T10:28:46;5.83;;;5.53;;
6679;SDS011;3376;42.664;23.346;2023-05-13T10:31:13;6.07;;;5.20;;
6679;SDS011;3376;42.664;23.346;2023-05-13T10:33:41;5.17;;;4.80;;
6679;SDS011;3376;42.664;23.346;2023-05-13T10:36:12;6.27;;;5.07;;
6679;SDS011;3376;42.664;23.346;2023-05-13T10:38:52;5.00;;;4.70;;
6679;SDS011;3376;42.664;23.346;2023-05-13T10:41:38;4.97;;;4.67;;
6679;SDS011;3376;42.664;23.346;2023-05-13T10:44:34;5.80;;;5.60;;
6679;SDS011;3376;42.664;23.346;2023-05-13T10:47:01;6.63;;;6.17;;
6679;SDS011;3376;42.664;23.346;2023-05-13T10:49:31;5.70;;;5.27;;
6679;SDS011;3376;42.664;23.346;2023-05-13T10:52:02;5.00;;;4.80;;
6679;SDS011;3376;42.664;23.346;2023-05-13T10:54:30;5.60;;;5.40;;
6679;SDS011;3376;42.664;23.346;2023-05-13T10:57:04;6.07;;;5.77;;
6679;SDS011;3376;42.664;23.346;2023-05-13T10:59:31;6.10;;;5.80;;
6679;SDS011;3376;42.664;23.346;2023-05-13T11:02:00;6.27;;;5.70;;
6679;SDS011;3376;42.664;23.346;2023-05-13T11:04:27;7.03;;;6.17;;
6679;SDS011;3376;42.664;23.346;2023-05-13T11:06:54;6.07;;;5.77;;
6679;SDS011;3376;42.664;23.346;2023-05-13T11:09:28;6.23;;;5.67;;
6679;SDS011;3376;42.664;23.346;2023-05-13T11:11:56;6.73;;;6.07;;
6679;SDS011;3376;42.664;23.346;2023-05-13T11:14:25;5.73;;;5.53;;
6679;SDS011;3376;42.664;23.346;2023-05-13T11:16:53;5.93;;;5.73;;
6679;SDS011;3376;42.664;23.346;2023-05-13T11:19:36;6.70;;;5.70;;
6679;SDS011;3376;42.664;23.346;2023-05-13T11:22:04;5.43;;;5.10;;
6679;SDS011;3376;42.664;23.346;2023-05-13T11:24:35;6.93;;;5.97;;
6679;SDS011;3376;42.664;23.346;2023-05-13T11:27:11;6.23;;;5.83;;
6679;SDS011;3376;42.664;23.346;2023-05-13T11:29:46;5.77;;;5.47;;
6679;SDS011;3376;42.664;23.346;2023-05-13T11:32:14;5.57;;;5.10;;
6679;SDS011;3376;42.664;23.346;2023-05-13T11:34:48;5.33;;;5.13;;
6679;SDS011;3376;42.664;23.346;2023-05-13T11:37:16;5.27;;;4.90;;
6679;SDS011;3376;42.664;23.346;2023-05-13T11:39:43;5.37;;;5.17;;
6679;SDS011;3376;42.664;23.346;2023-05-13T11:42:10;6.07;;;5.67;;
6679;SDS011;3376;42.664;23.346;2023-05-13T11:44:43;4.93;;;4.73;;
6679;SDS011;3376;42.664;23.346;2023-05-13T11:47:10;5.07;;;4.87;;
6679;SDS011;3376;42.664;23.346;2023-05-13T11:49:37;4.93;;;4.53;;
6679;SDS011;3376;42.664;23.346;2023-05-13T11:52:06;5.10;;;4.87;;
6679;SDS011;3376;42.664;23.346;2023-05-13T11:54:40;5.53;;;5.13;;
6679;SDS011;3376;42.664;23.346;2023-05-13T11:57:17;5.20;;;5.00;;
6679;SDS011;3376;42.664;23.346;2023-05-13T11:59:50;5.10;;;4.70;;
6679;SDS011;3376;42.664;23.346;2023-05-13T12:02:21;4.87;;;4.67;;
6679;SDS011;3376;42.664;23.346;2023-05-13T12:04:49;4.63;;;4.43;;
6679;SDS011;3376;42.664;23.346;2023-05-13T12:07:20;5.23;;;4.93;;
6679;SDS011;3376;42.664;23.346;2023-05-13T12:09:49;4.97;;;4.67;;
6679;SDS011;3376;42.664;23.346;2023-05-13T12:12:17;5.20;;;4.90;;
6679;SDS011;3376;42.664;23.346;2023-05-13T12:14:45;5.73;;;5.33;;
6679;SDS011;3376;42.664;23.346;2023-05-13T12:17:15;5.30;;;5.00;;
6679;SDS011;3376;42.664;23.346;2023-05-13T12:22:35;4.67;;;4.27;;
6679;SDS011;3376;42.664;23.346;2023-05-13T12:28:15;3.67;;;3.53;;
6679;SDS011;3376;42.664;23.346;2023-05-13T12:30:47;4.33;;;4.13;;
6679;SDS011;3376;42.664;23.346;2023-05-13T12:33:17;4.53;;;4.33;;
6679;SDS011;3376;42.664;23.346;2023-05-13T12:35:47;4.47;;;4.27;;
6679;SDS011;3376;42.664;23.346;2023-05-13T12:38:14;4.63;;;4.43;;
6679;SDS011;3376;42.664;23.346;2023-05-13T12:40:43;4.40;;;4.10;;
6679;SDS011;3376;42.664;23.346;2023-05-13T12:43:10;4.27;;;4.07;;
6679;SDS011;3376;42.664;23.346;2023-05-13T12:45:38;4.60;;;4.40;;
6679;SDS011;3376;42.664;23.346;2023-05-13T12:48:06;4.70;;;4.40;;
6679;SDS011;3376;42.664;23.346;2023-05-13T12:50:35;6.80;;;6.37;;
6679;SDS011;3376;42.664;23.346;2023-05-13T12:53:01;6.87;;;6.47;;
6679;SDS011;3376;42.664;23.346;2023-05-13T12:55:28;4.63;;;4.33;;
6679;SDS011;3376;42.664;23.346;2023-05-13T12:57:57;3.93;;;3.83;;
6679;SDS011;3376;42.664;23.346;2023-05-13T13:00:25;4.47;;;4.10;;
6679;SDS011;3376;42.664;23.346;2023-05-13T13:02:53;4.17;;;3.87;;
6679;SDS011;3376;42.664;23.346;2023-05-13T13:05:20;4.60;;;4.20;;
6679;SDS011;3376;42.664;23.346;2023-05-13T13:07:49;4.47;;;4.27;;
6679;SDS011;3376;42.664;23.346;2023-05-13T13:10:16;4.80;;;4.50;;
6679;SDS011;3376;42.664;23.346;2023-05-13T13:12:43;4.37;;;4.00;;
6679;SDS011;3376;42.664;23.346;2023-05-13T13:15:10;4.10;;;3.90;;
6679;SDS011;3376;42.664;23.346;2023-05-13T13:17:37;5.80;;;4.07;;
6679;SDS011;3376;42.664;23.346;2023-05-13T13:20:04;4.50;;;4.20;;
6679;SDS011;3376;42.664;23.346;2023-05-13T13:22:33;4.17;;;3.83;;
6679;SDS011;3376;42.664;23.346;2023-05-13T13:25:02;3.87;;;3.57;;
6679;SDS011;3376;42.664;23.346;2023-05-13T13:27:30;5.17;;;4.30;;
6679;SDS011;3376;42.664;23.346;2023-05-13T13:29:57;3.40;;;3.30;;
6679;SDS011;3376;42.664;23.346;2023-05-13T13:32:24;4.10;;;3.90;;
6679;SDS011;3376;42.664;23.346;2023-05-13T13:34:51;3.93;;;3.67;;
6679;SDS011;3376;42.664;23.346;2023-05-13T13:37:17;4.03;;;3.83;;
6679;SDS011;3376;42.664;23.346;2023-05-13T13:39:44;3.77;;;3.57;;
6679;SDS011;3376;42.664;23.346;2023-05-13T13:42:12;4.73;;;4.43;;
6679;SDS011;3376;42.664;23.346;2023-05-13T13:44:39;4.10;;;3.90;;
6679;SDS011;3376;42.664;23.346;2023-05-13T13:47:06;4.53;;;4.07;;
6679;SDS011;3376;42.664;23.346;2023-05-13T13:49:33;4.13;;;3.90;;
6679;SDS011;3376;42.664;23.346;2023-05-13T13:51:59;3.87;;;3.67;;
6679;SDS011;3376;42.664;23.346;2023-05-13T13:54:26;4.53;;;4.10;;
6679;SDS011;3376;42.664;23.346;2023-05-13T13:56:53;7.23;;;3.80;;
6679;SDS011;3376;42.664;23.346;2023-05-13T13:59:21;4.03;;;3.73;;
6679;SDS011;3376;42.664;23.346;2023-05-13T14:01:47;3.83;;;3.73;;
6679;SDS011;3376;42.664;23.346;2023-05-13T14:04:15;3.53;;;3.30;;
6679;SDS011;3376;42.664;23.346;2023-05-13T14:06:44;3.40;;;3.30;;
6679;SDS011;3376;42.664;23.346;2023-05-13T14:09:11;6.77;;;3.50;;
6679;SDS011;3376;42.664;23.346;2023-05-13T14:11:38;3.97;;;3.70;;
6679;SDS011;3376;42.664;23.346;2023-05-13T14:14:04;4.93;;;3.43;;
6679;SDS011;3376;42.664;23.346;2023-05-13T14:16:33;4.30;;;3.90;;
6679;SDS011;3376;42.664;23.346;2023-05-13T14:19:00;5.40;;;3.50;;
6679;SDS011;3376;42.664;23.346;2023-05-13T14:21:27;4.43;;;3.63;;
6679;SDS011;3376;42.664;23.346;2023-05-13T14:23:53;3.70;;;3.50;;
6679;SDS011;3376;42.664;23.346;2023-05-13T14:26:20;3.60;;;3.40;;
6679;SDS011;3376;42.664;23.346;2023-05-13T14:28:47;3.70;;;3.40;;
6679;SDS011;3376;42.664;23.346;2023-05-13T14:31:14;3.47;;;3.23;;
6679;SDS011;3376;42.664;23.346;2023-05-13T14:33:42;4.00;;;3.70;;
6679;SDS011;3376;42.664;23.346;2023-05-13T14:36:09;3.73;;;3.53;;
6679;SDS011;3376;42.664;23.346;2023-05-13T14:38:40;3.57;;;3.43;;
6679;SDS011;3376;42.664;23.346;2023-05-13T14:41:06;4.63;;;4.33;;
6679;SDS011;3376;42.664;23.346;2023-05-13T14:43:33;3.20;;;3.10;;
6679;SDS011;3376;42.664;23.346;2023-05-13T14:46:00;3.67;;;3.37;;
6679;SDS011;3376;42.664;23.346;2023-05-13T14:48:27;4.27;;;3.87;;
6679;SDS011;3376;42.664;23.346;2023-05-13T14:50:55;3.67;;;3.40;;
6679;SDS011;3376;42.664;23.346;2023-05-13T14:53:22;3.23;;;3.03;;
6679;SDS011;3376;42.664;23.346;2023-05-13T14:55:48;3.63;;;3.40;;
6679;SDS011;3376;42.664;23.346;2023-05-13T14:58:15;3.80;;;3.60;;
6679;SDS011;3376;42.664;23.346;2023-05-13T15:00:42;4.70;;;4.13;;
6679;SDS011;3376;42.664;23.346;2023-05-13T15:03:09;3.80;;;3.37;;
6679;SDS011;3376;42.664;23.346;2023-05-13T15:05:36;3.30;;;3.00;;
6679;SDS011;3376;42.664;23.346;2023-05-13T15:08:04;3.27;;;3.07;;
6679;SDS011;3376;42.664;23.346;2023-05-13T15:10:31;6.43;;;3.97;;
6679;SDS011;3376;42.664;23.346;2023-05-13T15:12:58;3.43;;;3.30;;